カラチ の空港の天気 - METARとTAF

ジンナー国際空港(カラチ) ( OPKC / KHI ) - パキスタン Karachi
飛行場実況気象(Metar)
観測時間10/23 17:55 PKT (10/23 12:55 UTC)
風向・風速西南西 4m/s
視程7000m
天気現象
少しの雲 雲底高度 610m
気温29℃
湿度62%
気圧1011hPa
METAROPKC 231255Z 24008KT 7000 FEW020 29/21 Q1011 NOSIG
過去の天気等 Google飛行場航空写真 Wunderground天気予報

過去48時間のMETAR

飛行場予報(TAF)
発表時間: 10/23 14:30 PKT (10/23 09:30 UTC)
予報対象時間: 23日17時 PKT ~ 24日23時 PKT
風向・風速西南西 5m/s
視程6,000m
全天の4割程度の雲 雲底高度 610m
24日5時 PKT ~ 24日9時 PKT に一時的に
風向・風速西南西 4m/s
視程2,000m
天気現象
全天の4割程度の雲 雲底高度 610m
24日11時 PKT ~ 24日13時 PKT に徐々に
風向・風速西 5m/s 瞬間風速 10m/s
視程6,000m
少しの雲 雲底高度 610m
TAF OPKC 230930Z 2312/2418 25010KT 6000 SCT020
TEMPO 2400/2404 24008KT 2000 FU SCT020
BECMG 2406/2408 26010G20KT 6000 FEW020